Time;durP1;ratioP1;P1;durP2;ratioP2;P2;SDS_P1;SDS_P2;PMS_P1;PMS_P2;Temp;Humidity;BMP_temperature;BMP_pressure;BME280_temperature;BME280_humidity;BME280_pressure;Samples;Min_cycle;Max_cycle;Signal;HPM_P1;HPM_P2
2022/04/12 00:00:14;;;;;;;8.52;5.47;;;;;;;9.63;58.57;101060.63;5016852;28;20014;-80
2022/04/12 00:02:41;;;;;;;11.00;5.47;;;;;;;9.61;57.41;101059.72;5016591;28;20056;-79
2022/04/12 00:05:07;;;;;;;8.55;5.63;;;;;;;9.60;56.97;101057.94;5012166;28;20273;-79
2022/04/12 00:07:32;;;;;;;9.40;5.78;;;;;;;9.58;57.64;101042.28;5018575;28;20028;-79
2022/04/12 00:09:58;;;;;;;10.88;5.90;;;;;;;9.58;57.94;101048.38;5019090;28;20022;-79
2022/04/12 00:12:23;;;;;;;7.93;5.18;;;;;;;9.58;57.59;101043.16;5009775;28;20029;-79
2022/04/12 00:14:49;;;;;;;10.20;5.57;;;;;;;9.58;58.05;101043.16;5014055;28;20002;-80
2022/04/12 00:19:58;;;;;;;8.45;4.93;;;;;;;9.54;56.92;101027.41;5020703;28;20140;-80
2022/04/12 00:22:23;;;;;;;8.95;5.13;;;;;;;9.55;56.36;101030.06;5023481;28;20029;-79
2022/04/12 00:24:49;;;;;;;8.27;5.22;;;;;;;9.56;57.10;101030.97;5019858;28;20208;-79
2022/04/12 00:27:14;;;;;;;7.88;5.20;;;;;;;9.56;57.03;101037.03;5019510;28;20149;-80
2022/04/12 00:29:40;;;;;;;8.38;4.80;;;;;;;9.53;57.37;101023.94;5020745;28;20033;-79
2022/04/12 00:32:05;;;;;;;9.70;5.47;;;;;;;9.54;57.62;101027.41;5021122;28;20149;-80
2022/04/12 00:34:31;;;;;;;10.05;5.65;;;;;;;9.52;57.36;101019.56;5017230;28;20299;-79
2022/04/12 00:36:56;;;;;;;10.50;5.45;;;;;;;9.52;57.54;101022.16;5016048;28;20273;-80
2022/04/12 00:39:21;;;;;;;9.05;5.25;;;;;;;9.53;57.33;101020.44;5020705;28;20045;-79
2022/04/12 00:41:46;;;;;;;8.38;5.05;;;;;;;9.52;57.37;101026.50;5019429;28;20025;-79
2022/04/12 00:44:12;;;;;;;8.00;4.97;;;;;;;9.51;57.54;101027.31;5014680;28;20101;-80
2022/04/12 00:46:37;;;;;;;8.63;5.00;;;;;;;9.51;57.24;101027.31;5014422;28;20030;-79
2022/04/12 00:49:02;;;;;;;9.10;5.18;;;;;;;9.48;57.28;101035.03;5013664;28;20061;-79
2022/04/12 00:51:28;;;;;;;9.88;5.40;;;;;;;9.48;57.21;101032.44;5008616;28;20018;-79
2022/04/12 00:53:54;;;;;;;11.32;5.50;;;;;;;9.47;57.31;101022.88;5017809;28;20018;-79
2022/04/12 00:56:20;;;;;;;10.13;5.50;;;;;;;9.45;57.49;101022.81;5018172;28;20077;-79
2022/04/12 00:58:49;;;;;;;10.88;5.55;;;;;;;9.46;57.34;101024.59;5016844;28;20068;-80
2022/04/12 01:01:14;;;;;;;7.85;5.10;;;;;;;9.44;57.12;101015.84;5017110;28;20089;-80
2022/04/12 01:03:40;;;;;;;8.73;5.40;;;;;;;9.45;56.89;101032.34;5017041;28;20013;-80
2022/04/12 01:06:05;;;;;;;10.68;5.55;;;;;;;9.45;56.81;101034.94;5008686;28;20086;-80
2022/04/12 01:08:31;;;;;;;9.05;5.80;;;;;;;9.42;57.21;101035.72;5013344;28;20041;-77
2022/04/12 01:10:59;;;;;;;8.43;5.53;;;;;;;9.41;57.40;101023.56;5013055;28;20025;-76
2022/04/12 01:13:24;;;;;;;8.98;5.43;;;;;;;9.40;57.50;101017.47;5017889;28;20014;-76
2022/04/12 01:15:49;;;;;;;10.75;5.80;;;;;;;9.38;58.53;101024.38;5015394;28;20013;-76
2022/04/12 01:18:15;;;;;;;8.13;5.07;;;;;;;9.33;58.22;101017.25;5016051;28;20017;-76
2022/04/12 01:20:40;;;;;;;9.63;5.57;;;;;;;9.29;59.13;101021.47;5009072;28;20097;-76
2022/04/12 01:23:09;;;;;;;9.63;5.43;;;;;;;9.21;59.52;101020.31;5017290;28;20049;-76
2022/04/12 01:25:35;;;;;;;10.30;5.50;;;;;;;9.14;59.36;101018.34;5011140;28;20021;-76
2022/04/12 01:28:00;;;;;;;8.70;5.30;;;;;;;9.09;59.83;101018.22;5019804;28;20124;-76
2022/04/12 01:30:25;;;;;;;10.73;6.18;;;;;;;9.05;59.58;101019.84;5017158;28;20037;-76
2022/04/12 01:32:51;;;;;;;8.43;5.55;;;;;;;9.02;59.70;101029.25;5018578;28;20028;-76
2022/04/12 01:35:16;;;;;;;9.52;5.95;;;;;;;8.97;60.13;101021.31;5017374;28;20046;-76
2022/04/12 01:37:41;;;;;;;10.10;6.15;;;;;;;8.91;59.64;101017.59;5011018;28;20032;-77
2022/04/12 01:40:09;;;;;;;11.38;6.57;;;;;;;8.84;60.50;101020.00;5012851;28;20073;-76
2022/04/12 01:42:34;;;;;;;11.98;6.80;;;;;;;8.78;60.46;101017.22;5024577;28;20025;-76
2022/04/12 01:45:00;;;;;;;10.73;6.35;;;;;;;8.73;60.36;101018.75;5024593;28;20022;-76
2022/04/12 01:47:25;;;;;;;10.50;6.30;;;;;;;8.70;60.82;101016.06;5022195;28;20053;-76
2022/04/12 01:49:50;;;;;;;10.10;6.57;;;;;;;8.68;60.62;101016.00;5012603;28;20045;-76
2022/04/12 01:52:16;;;;;;;11.40;6.50;;;;;;;8.65;60.50;101017.63;5018078;28;20025;-76
2022/04/12 01:54:41;;;;;;;13.68;6.80;;;;;;;8.62;60.48;101014.94;5022108;28;20022;-76
2022/04/12 01:57:07;;;;;;;11.85;7.30;;;;;;;8.59;60.87;101009.59;5020236;28;20026;-76
2022/04/12 01:59:32;;;;;;;9.90;6.20;;;;;;;8.57;60.88;101003.50;5009061;28;20014;-76
2022/04/12 02:01:57;;;;;;;9.63;6.10;;;;;;;8.57;60.64;100999.16;5014305;28;20022;-76
2022/04/12 02:04:23;;;;;;;9.77;5.97;;;;;;;8.54;61.32;100996.47;5022575;28;20022;-76
2022/04/12 02:06:49;;;;;;;9.85;6.10;;;;;;;8.54;60.90;100996.47;5019126;28;20026;-76
2022/04/12 02:09:14;;;;;;;9.07;6.07;;;;;;;8.51;61.18;101007.63;5013678;28;20045;-76
2022/04/12 02:11:39;;;;;;;9.15;5.43;;;;;;;8.49;60.50;101008.44;5009352;28;20022;-76
2022/04/12 02:14:06;;;;;;;9.55;6.30;;;;;;;8.49;60.95;101006.72;5019399;28;20103;-76
2022/04/12 02:16:32;;;;;;;9.65;6.22;;;;;;;8.45;61.90;101017.81;5008897;28;20016;-76
2022/04/12 02:18:57;;;;;;;9.15;6.20;;;;;;;8.43;61.36;101008.16;5014378;28;20037;-76
2022/04/12 02:21:22;;;;;;;9.73;6.68;;;;;;;8.38;61.55;101008.00;5014181;28;20029;-76
2022/04/12 02:23:47;;;;;;;10.70;6.53;;;;;;;8.32;61.57;101005.22;5018626;28;20026;-76
2022/04/12 02:26:13;;;;;;;8.40;6.07;;;;;;;8.29;61.34;100994.72;5014648;28;20165;-76
2022/04/12 02:28:38;;;;;;;10.95;6.35;;;;;;;8.27;61.66;100997.25;5014190;28;20018;-76
2022/04/12 02:31:03;;;;;;;9.95;6.47;;;;;;;8.23;62.18;101004.88;5014155;28;20284;-77
2022/04/12 02:33:29;;;;;;;10.18;6.55;;;;;;;8.22;62.24;101005.72;5010146;28;20171;-76
2022/04/12 02:35:54;;;;;;;9.80;6.45;;;;;;;8.18;62.10;101005.59;5014332;28;20257;-76
2022/04/12 02:38:20;;;;;;;10.27;6.25;;;;;;;8.16;62.04;100998.59;5021713;28;20026;-76
2022/04/12 02:40:45;;;;;;;10.43;6.30;;;;;;;8.14;62.39;100995.94;5012214;28;20045;-76
2022/04/12 02:43:10;;;;;;;14.02;6.97;;;;;;;8.09;62.17;100997.47;5014767;28;20026;-76
2022/04/12 02:45:35;;;;;;;11.65;7.03;;;;;;;8.08;62.32;100998.31;5015079;28;20269;-76
2022/04/12 02:48:01;;;;;;;10.43;6.65;;;;;;;8.06;62.39;100994.78;5014787;28;20025;-79
2022/04/12 02:50:27;;;;;;;10.35;6.20;;;;;;;8.04;62.47;100988.66;5012492;28;20128;-79
2022/04/12 02:52:52;;;;;;;10.18;5.97;;;;;;;8.03;62.82;100986.00;5019831;28;20184;-80
2022/04/12 02:55:18;;;;;;;8.02;5.63;;;;;;;7.98;62.91;100978.94;5018542;28;20082;-79
2022/04/12 02:57:43;;;;;;;10.95;6.28;;;;;;;7.97;62.84;100981.47;5009079;28;20174;-79
2022/04/12 03:00:08;;;;;;;9.07;6.25;;;;;;;7.97;62.90;100976.28;5012261;28;20249;-79
2022/04/12 03:02:34;;;;;;;8.20;5.82;;;;;;;7.91;63.13;100976.06;5015538;28;20010;-79
2022/04/12 03:04:59;;;;;;;9.50;5.75;;;;;;;7.86;63.07;100969.81;5011260;28;20022;-79
2022/04/12 03:07:24;;;;;;;10.13;5.82;;;;;;;7.85;63.91;100976.72;5016141;28;20064;-79
2022/04/12 03:09:50;;;;;;;10.70;6.10;;;;;;;7.86;64.01;100968.09;5013534;28;20021;-79
2022/04/12 03:12:15;;;;;;;10.68;6.28;;;;;;;7.82;63.74;100967.13;5015134;28;20026;-79
2022/04/12 03:14:40;;;;;;;9.90;6.10;;;;;;;7.79;63.95;100959.22;5015355;28;20137;-79
2022/04/12 03:17:05;;;;;;;10.10;6.07;;;;;;;7.76;63.88;100953.94;5023177;28;20261;-80
2022/04/12 03:19:31;;;;;;;9.82;6.18;;;;;;;7.75;64.12;100957.34;5014187;28;20322;-79
2022/04/12 03:21:56;;;;;;;9.13;5.78;;;;;;;7.70;63.73;100958.88;5021724;28;20037;-79
2022/04/12 03:24:24;;;;;;;9.10;6.32;;;;;;;7.69;64.22;100954.53;5018546;28;20053;-79
2022/04/12 03:26:50;;;;;;;9.18;6.13;;;;;;;7.68;64.20;100942.38;5021409;28;20064;-79
2022/04/12 03:29:16;;;;;;;8.40;5.72;;;;;;;7.65;64.36;100934.50;5021059;28;20085;-80
2022/04/12 03:31:41;;;;;;;10.07;6.50;;;;;;;7.66;64.56;100939.72;5023078;28;20018;-79
2022/04/12 03:34:07;;;;;;;10.45;6.45;;;;;;;7.64;65.39;100940.50;5017968;28;20018;-79
2022/04/12 03:36:32;;;;;;;9.45;6.40;;;;;;;7.65;64.60;100942.25;5024329;28;20045;-79
2022/04/12 03:38:58;;;;;;;8.85;5.93;;;;;;;7.61;64.41;100940.38;5022866;28;20041;-79
2022/04/12 03:41:23;;;;;;;10.13;6.00;;;;;;;7.59;64.50;100947.19;5017874;28;20035;-79
2022/04/12 03:43:50;;;;;;;11.77;6.85;;;;;;;7.58;64.66;100948.06;5016081;28;20180;-80
2022/04/12 03:46:16;;;;;;;9.60;6.50;;;;;;;7.52;64.44;100946.09;5008274;28;20023;-79
2022/04/12 03:48:41;;;;;;;11.15;6.55;;;;;;;7.49;64.39;100951.19;5024793;28;20145;-80
2022/04/12 03:51:06;;;;;;;9.27;6.43;;;;;;;7.43;64.45;100950.94;5023964;28;20018;-79
2022/04/12 03:53:32;;;;;;;10.23;6.60;;;;;;;7.36;64.75;100947.25;5025176;28;20076;-79
2022/04/12 03:55:57;;;;;;;11.07;6.22;;;;;;;7.32;64.67;100937.56;5018176;28;20034;-79
2022/04/12 03:58:23;;;;;;;9.63;6.15;;;;;;;7.27;65.61;100926.13;5026077;28;20025;-79
2022/04/12 04:00:49;;;;;;;11.00;6.55;;;;;;;7.29;65.81;100924.50;5015260;28;20085;-79
2022/04/12 04:03:15;;;;;;;10.70;6.70;;;;;;;7.26;66.45;100921.78;5018436;28;20207;-80
2022/04/12 04:05:40;;;;;;;10.32;6.65;;;;;;;7.26;66.43;100926.97;5023033;28;20798;-79
2022/04/12 04:08:06;;;;;;;10.13;6.70;;;;;;;7.28;66.07;100931.38;5021098;28;20021;-79
2022/04/12 04:10:31;;;;;;;11.27;6.75;;;;;;;7.28;65.52;100925.31;5017788;28;20052;-80
2022/04/12 04:12:56;;;;;;;10.07;6.25;;;;;;;7.26;66.01;100930.44;5021870;28;20284;-80
2022/04/12 04:15:22;;;;;;;9.82;5.97;;;;;;;7.29;65.30;100932.28;5024212;28;20093;-80
2022/04/12 04:17:47;;;;;;;9.57;6.43;;;;;;;7.31;65.58;100925.44;5015273;28;20261;-80
2022/04/12 04:20:17;;;;;;;10.77;6.63;;;;;;;7.34;65.85;100935.03;5010596;28;20034;-79
2022/04/12 04:22:44;;;;;;;11.00;6.65;;;;;;;7.34;65.89;100932.44;5019126;28;20300;-80
2022/04/12 04:25:11;;;;;;;11.73;6.40;;;;;;;7.35;65.72;100929.91;5018169;28;20025;-79
2022/04/12 04:27:36;;;;;;;10.05;6.40;;;;;;;7.39;65.67;100933.53;5012261;28;20269;-79
2022/04/12 04:30:04;;;;;;;9.15;5.95;;;;;;;7.40;65.46;100930.97;5012398;28;20049;-79
2022/04/12 04:32:30;;;;;;;10.48;6.13;;;;;;;7.40;65.67;100933.56;5010581;28;20022;-79
2022/04/12 04:34:55;;;;;;;11.75;6.15;;;;;;;7.39;65.80;100934.38;5021001;28;20056;-79
2022/04/12 04:37:20;;;;;;;13.48;6.57;;;;;;;7.36;66.49;100939.47;5020892;28;20026;-79
2022/04/12 04:39:46;;;;;;;11.23;6.60;;;;;;;7.32;66.08;100937.56;5015273;28;20093;-79
2022/04/12 04:42:11;;;;;;;14.43;7.00;;;;;;;7.27;66.43;100933.91;5013223;28;20022;-79
2022/04/12 04:44:36;;;;;;;10.07;6.35;;;;;;;7.25;66.56;100931.25;5014531;28;20268;-79
2022/04/12 04:47:02;;;;;;;13.75;7.22;;;;;;;7.22;66.64;100938.91;5021253;28;20041;-80
2022/04/12 04:49:27;;;;;;;10.40;6.60;;;;;;;7.22;66.79;100949.28;5013890;28;20030;-79
2022/04/12 04:51:53;;;;;;;10.13;6.45;;;;;;;7.22;65.73;100953.59;5025836;28;20021;-80
2022/04/12 04:54:18;;;;;;;11.75;6.93;;;;;;;7.20;66.17;100966.50;5024970;28;20022;-80
2022/04/12 04:56:43;;;;;;;10.70;7.10;;;;;;;7.20;65.93;100968.19;5024348;28;20021;-80
2022/04/12 04:59:12;;;;;;;10.80;6.90;;;;;;;7.18;66.70;100970.72;5015790;28;20041;-79
2022/04/12 05:01:38;;;;;;;12.55;6.68;;;;;;;7.18;66.27;100980.22;5020829;28;20288;-79
2022/04/12 05:04:03;;;;;;;11.32;6.70;;;;;;;7.14;67.07;100981.81;5017025;28;20039;-80
2022/04/12 05:06:29;;;;;;;13.90;7.28;;;;;;;7.12;67.30;100981.72;5011130;28;20128;-79
2022/04/12 05:08:54;;;;;;;13.68;7.13;;;;;;;7.11;67.12;100974.78;5011265;28;20010;-79
2022/04/12 05:11:19;;;;;;;12.85;6.65;;;;;;;7.08;67.31;100969.50;5014728;28;20026;-80
2022/04/12 05:13:45;;;;;;;11.07;6.35;;;;;;;7.11;67.70;100969.59;5013360;28;20045;-79
2022/04/12 05:16:10;;;;;;;11.05;6.55;;;;;;;7.10;68.17;100960.06;5018509;28;20092;-79
2022/04/12 05:18:35;;;;;;;11.95;6.80;;;;;;;7.12;68.38;100953.22;5023620;28;20017;-79
2022/04/12 05:21:01;;;;;;;11.80;7.05;;;;;;;7.17;67.95;100953.41;5016146;28;20276;-79
2022/04/12 05:23:26;;;;;;;11.75;7.32;;;;;;;7.23;68.33;100960.56;5020144;28;20038;-79
2022/04/12 05:25:53;;;;;;;14.98;7.13;;;;;;;7.28;67.97;100962.47;5020509;28;20228;-79
2022/04/12 05:28:19;;;;;;;12.80;7.72;;;;;;;7.31;68.85;100961.72;5013569;28;20022;-80
2022/04/12 05:30:45;;;;;;;14.90;7.40;;;;;;;7.34;68.71;100963.56;5013247;28;20022;-79
2022/04/12 05:33:10;;;;;;;11.93;7.43;;;;;;;7.35;68.51;100948.06;5014545;28;20124;-79
2022/04/12 05:35:36;;;;;;;13.50;7.78;;;;;;;7.40;68.05;100950.81;5009130;28;20014;-80
2022/04/12 05:38:04;;;;;;;11.75;6.95;;;;;;;7.44;67.98;100952.69;5023535;28;20049;-79
2022/04/12 05:40:29;;;;;;;11.60;7.57;;;;;;;7.47;67.86;100956.31;5021895;28;20026;-80
2022/04/12 05:42:54;;;;;;;16.50;7.88;;;;;;;7.50;67.78;100955.53;5014945;28;20209;-79
2022/04/12 05:45:20;;;;;;;16.77;7.78;;;;;;;7.53;68.21;100958.25;5008100;28;20270;-79
2022/04/12 05:47:46;;;;;;;14.82;8.15;;;;;;;7.55;67.93;100945.34;5015978;28;20068;-79
2022/04/12 05:50:14;;;;;;;15.50;8.02;;;;;;;7.59;67.44;100947.19;5014550;28;20204;-79
2022/04/12 05:52:39;;;;;;;12.48;8.00;;;;;;;7.60;67.32;100956.75;5023956;28;20118;-80
2022/04/12 05:55:09;;;;;;;14.70;8.20;;;;;;;7.63;68.29;100972.44;5015229;28;20112;-80
2022/04/12 05:57:37;;;;;;;15.35;8.30;;;;;;;7.65;68.27;100973.38;5011449;28;20259;-80
2022/04/12 06:00:04;;;;;;;14.73;8.68;;;;;;;7.68;67.75;100973.50;5019493;28;20061;-79
2022/04/12 06:02:29;;;;;;;17.85;9.40;;;;;;;7.69;67.64;100970.09;5013721;28;20022;-80
2022/04/12 06:04:54;;;;;;;15.80;8.70;;;;;;;7.72;67.58;100959.81;5009569;28;20024;-80
2022/04/12 06:07:20;;;;;;;16.63;9.02;;;;;;;7.77;67.20;100962.59;5016261;28;20182;-76
2022/04/12 06:09:45;;;;;;;14.55;8.40;;;;;;;7.79;67.92;100966.09;5015833;28;20164;-76
2022/04/12 06:12:10;;;;;;;13.63;8.85;;;;;;;7.84;67.83;100964.56;5022604;28;20056;-76
2022/04/12 06:14:36;;;;;;;14.35;8.70;;;;;;;7.89;67.97;100967.31;5011554;28;20085;-76
2022/04/12 06:17:01;;;;;;;14.52;9.27;;;;;;;7.93;67.91;100964.03;5018392;28;20021;-76
2022/04/12 06:19:26;;;;;;;14.15;9.50;;;;;;;8.01;68.03;100965.19;5012030;28;20269;-76
2022/04/12 06:21:51;;;;;;;16.83;9.35;;;;;;;8.10;67.92;100967.22;5010668;28;20025;-76
2022/04/12 06:24:18;;;;;;;15.70;9.00;;;;;;;8.19;67.88;100962.34;5011656;28;20076;-76
2022/04/12 06:26:43;;;;;;;14.82;9.55;;;;;;;8.29;67.49;100968.75;5016597;28;20187;-76
2022/04/12 06:29:09;;;;;;;14.80;9.68;;;;;;;8.41;67.91;100969.16;5022825;28;20025;-76
2022/04/12 06:31:34;;;;;;;14.73;9.98;;;;;;;8.55;67.28;100971.41;5018542;28;20025;-76
2022/04/12 06:33:59;;;;;;;15.93;9.27;;;;;;;8.67;67.06;100969.22;5021397;28;20010;-76
2022/04/12 06:36:24;;;;;;;14.85;8.68;;;;;;;8.81;65.23;100973.13;5023707;28;20180;-76
2022/04/12 06:38:50;;;;;;;15.57;8.95;;;;;;;8.96;65.20;100962.34;5023660;28;20052;-76
2022/04/12 06:41:16;;;;;;;22.50;9.18;;;;;;;9.15;64.96;100976.84;5018900;28;20019;-76
2022/04/12 06:43:41;;;;;;;15.35;9.57;;;;;;;9.33;64.56;100973.03;5020442;28;20033;-76
2022/04/12 06:46:06;;;;;;;17.05;9.82;;;;;;;9.63;63.67;100966.97;5022888;28;20033;-76
2022/04/12 06:48:31;;;;;;;16.20;8.35;;;;;;;11.13;59.26;100962.25;5021251;28;20029;-76
2022/04/12 06:50:57;;;;;;;13.73;8.40;;;;;;;13.58;52.47;100951.91;5011142;28;20018;-76
2022/04/12 06:53:23;;;;;;;15.15;9.10;;;;;;;15.50;47.57;100941.41;5023294;28;20045;-76
2022/04/12 06:55:48;;;;;;;17.70;8.98;;;;;;;17.50;41.96;100939.84;5023404;28;20021;-76
2022/04/12 06:58:14;;;;;;;12.90;8.88;;;;;;;19.13;39.49;100935.25;5022992;28;20068;-76
2022/04/12 07:00:40;;;;;;;14.43;9.63;;;;;;;20.97;34.75;100940.66;5023593;28;20132;-76
2022/04/12 07:03:06;;;;;;;13.05;9.27;;;;;;;22.52;31.75;100954.28;5022352;28;20048;-76
2022/04/12 07:05:31;;;;;;;14.30;9.10;;;;;;;21.74;32.33;100944.53;5023298;28;20281;-76
2022/04/12 07:07:57;;;;;;;22.17;10.70;;;;;;;20.14;35.44;100943.72;5023425;28;20045;-77
2022/04/12 07:10:22;;;;;;;19.42;10.60;;;;;;;18.67;37.74;100940.94;5023857;28;20171;-77
2022/04/12 07:12:53;;;;;;;20.40;10.88;;;;;;;17.39;40.70;100937.25;5021521;28;20017;-77
2022/04/12 07:15:18;;;;;;;19.98;10.77;;;;;;;16.31;42.68;100934.69;5021608;28;20089;-77
2022/04/12 07:17:44;;;;;;;18.23;10.77;;;;;;;15.46;44.95;100937.88;5021451;28;20018;-80
2022/04/12 07:20:10;;;;;;;22.95;12.10;;;;;;;14.87;47.00;100943.63;5021120;28;20029;-80
2022/04/12 07:22:35;;;;;;;24.25;11.68;;;;;;;14.37;47.75;100960.66;5021781;28;20041;-80
2022/04/12 07:25:00;;;;;;;23.15;12.85;;;;;;;13.99;48.46;100959.41;5019455;28;20029;-81
2022/04/12 07:27:26;;;;;;;22.35;12.18;;;;;;;13.71;49.49;100959.03;5021902;28;20132;-81
2022/04/12 07:29:51;;;;;;;24.23;13.02;;;;;;;13.50;50.72;100950.94;5020313;28;20026;-81
2022/04/12 07:32:16;;;;;;;23.95;13.10;;;;;;;13.32;50.75;100935.81;5018936;28;20026;-80
2022/04/12 07:34:41;;;;;;;26.70;12.48;;;;;;;13.19;51.28;100937.38;5019885;28;20034;-80
2022/04/12 07:37:08;;;;;;;23.52;12.18;;;;;;;13.11;51.74;100942.50;5022175;28;20260;-81
2022/04/12 07:39:33;;;;;;;24.48;11.60;;;;;;;13.04;52.23;100938.03;5022208;28;20022;-80
2022/04/12 07:41:59;;;;;;;22.92;11.85;;;;;;;13.00;52.14;100947.56;5021453;28;20090;-81
2022/04/12 07:44:24;;;;;;;22.70;11.40;;;;;;;12.98;52.15;100943.19;5020987;28;20158;-80
2022/04/12 07:46:50;;;;;;;21.60;12.63;;;;;;;12.98;53.75;100946.69;5022674;28;20028;-81
2022/04/12 07:49:16;;;;;;;20.38;11.95;;;;;;;12.98;53.78;100941.44;5022273;28;20024;-81
2022/04/12 07:51:41;;;;;;;22.80;11.45;;;;;;;12.98;52.94;100948.44;5021657;28;20043;-80
2022/04/12 07:54:07;;;;;;;24.77;11.65;;;;;;;13.01;54.57;100944.09;5021218;28;20022;-81
2022/04/12 07:56:34;;;;;;;40.75;15.30;;;;;;;13.05;53.09;100943.28;5017926;28;20029;-80
2022/04/12 07:58:59;;;;;;;20.77;10.82;;;;;;;13.11;53.47;100939.03;5019623;28;20037;-80
2022/04/12 08:01:25;;;;;;;19.40;10.57;;;;;;;13.17;53.46;100936.50;5019744;28;20171;-81
2022/04/12 08:03:50;;;;;;;30.85;12.68;;;;;;;13.26;53.49;100939.22;5020956;28;20647;-80
2022/04/12 08:06:16;;;;;;;17.48;10.15;;;;;;;13.28;53.04;100947.09;5022023;28;20022;-80
2022/04/12 08:08:41;;;;;;;21.98;10.68;;;;;;;13.34;52.44;100945.50;5023242;28;20013;-81
2022/04/12 08:11:07;;;;;;;55.72;17.05;;;;;;;13.41;52.68;100953.41;5023672;28;20207;-79
2022/04/12 08:13:34;;;;;;;17.48;10.00;;;;;;;13.47;53.25;100943.03;5023417;28;20032;-73
2022/04/12 08:15:59;;;;;;;19.15;11.10;;;;;;;13.53;54.00;100944.00;5025968;28;20323;-73
2022/04/12 08:18:26;;;;;;;18.63;9.57;;;;;;;13.61;53.29;100951.06;5025281;28;20029;-73
2022/04/12 08:20:51;;;;;;;20.95;9.88;;;;;;;13.65;52.75;100947.63;5026219;28;20038;-73
2022/04/12 08:23:17;;;;;;;17.10;9.43;;;;;;;13.71;51.95;100956.44;5026190;28;20045;-73
2022/04/12 08:25:43;;;;;;;16.55;9.10;;;;;;;13.79;53.24;100955.66;5025671;28;20057;-73
2022/04/12 08:28:09;;;;;;;16.73;9.05;;;;;;;13.89;52.47;100955.78;5024972;28;20081;-73
2022/04/12 08:30:34;;;;;;;16.27;9.55;;;;;;;13.96;51.78;100948.91;5026139;28;20029;-73
2022/04/12 08:33:01;;;;;;;16.30;8.88;;;;;;;14.05;52.14;100955.97;5026103;28;20021;-73
2022/04/12 08:35:27;;;;;;;23.02;10.15;;;;;;;14.11;51.48;100949.88;5025673;28;20085;-72
2022/04/12 08:37:53;;;;;;;19.10;9.18;;;;;;;14.19;51.15;100953.47;5025960;28;20264;-73
2022/04/12 08:40:18;;;;;;;17.35;10.07;;;;;;;14.26;50.68;100958.81;5025915;28;20029;-73
2022/04/12 08:42:45;;;;;;;20.23;9.65;;;;;;;14.31;51.20;100947.47;5025786;28;20129;-73
2022/04/12 08:45:10;;;;;;;19.27;9.93;;;;;;;14.35;51.49;100941.41;5025907;28;20030;-73
2022/04/12 08:47:36;;;;;;;19.52;9.93;;;;;;;14.40;51.11;100932.72;5025458;28;20083;-73
2022/04/12 08:50:03;;;;;;;18.75;9.38;;;;;;;14.46;49.65;100924.03;5025841;28;20053;-75
2022/04/12 08:52:29;;;;;;;17.80;9.68;;;;;;;14.53;51.27;100925.00;5024957;28;20026;-73
2022/04/12 08:54:55;;;;;;;16.40;9.25;;;;;;;14.59;50.76;100912.78;5025653;28;20261;-73
2022/04/12 08:57:20;;;;;;;16.52;9.35;;;;;;;14.66;50.95;100915.50;5025535;28;20025;-73
2022/04/12 08:59:46;;;;;;;16.70;9.80;;;;;;;14.72;51.82;100913.78;5025548;28;20023;-74
2022/04/12 09:02:12;;;;;;;18.90;9.43;;;;;;;14.77;50.42;100912.09;5025190;28;20026;-73
2022/04/12 09:04:38;;;;;;;19.23;9.43;;;;;;;14.82;50.14;100913.88;5025341;28;20060;-73
2022/04/12 09:07:08;;;;;;;15.95;8.85;;;;;;;14.86;49.77;100913.00;5024840;28;20042;-73
2022/04/12 09:09:33;;;;;;;16.33;8.90;;;;;;;14.92;49.46;100913.94;5025177;28;20029;-73
2022/04/12 09:12:03;;;;;;;17.25;9.00;;;;;;;14.98;50.77;100918.34;5025371;28;20029;-74
2022/04/12 09:14:38;;;;;;;19.33;9.05;;;;;;;15.07;49.65;100917.53;5025188;28;20021;-73
2022/04/12 09:17:04;;;;;;;16.13;9.40;;;;;;;15.16;49.29;100911.47;5025195;28;20021;-73
2022/04/12 09:19:42;;;;;;;19.98;9.43;;;;;;;15.24;49.50;100904.53;5024913;28;20037;-74
2022/04/12 09:22:18;;;;;;;17.70;8.75;;;;;;;15.30;50.02;100900.16;5025133;28;20204;-73
2022/04/12 09:24:52;;;;;;;19.58;9.43;;;;;;;15.35;49.25;100887.09;5025031;28;20041;-73
2022/04/12 09:27:21;;;;;;;17.13;9.10;;;;;;;15.43;52.60;100877.47;5022651;28;20026;-81
2022/04/12 09:29:50;;;;;;;19.67;9.55;;;;;;;15.46;48.31;100882.72;5021313;28;20026;-81
2022/04/12 09:32:18;;;;;;;20.30;8.90;;;;;;;15.51;50.52;100871.38;5023885;28;20048;-81
2022/04/12 09:34:44;;;;;;;19.35;9.60;;;;;;;15.55;49.22;100876.63;5023867;28;20146;-81
2022/04/12 09:37:29;;;;;;;18.65;9.30;;;;;;;15.65;50.28;100875.78;5023506;28;20017;-81
2022/04/12 09:40:00;;;;;;;18.17;9.63;;;;;;;15.70;48.09;100875.81;5012523;28;20303;-81
2022/04/12 09:42:52;;;;;;;16.30;9.55;;;;;;;15.76;49.16;100878.47;5021807;28;20056;-81
2022/04/12 09:45:25;;;;;;;17.35;9.52;;;;;;;15.81;50.38;100881.13;5012714;28;20075;-81
2022/04/12 09:47:54;;;;;;;17.88;8.77;;;;;;;15.88;48.92;100882.03;5022180;28;20049;-81
2022/04/12 09:50:23;;;;;;;19.85;9.02;;;;;;;15.94;48.44;100892.56;5023534;28;20275;-81
2022/04/12 09:52:56;;;;;;;17.45;8.00;;;;;;;16.02;49.55;100890.81;5023378;28;20022;-81
2022/04/12 09:55:35;;;;;;;14.93;8.05;;;;;;;16.10;49.76;100882.94;5023297;28;20046;-81
2022/04/12 09:58:02;;;;;;;17.00;8.75;;;;;;;16.16;49.24;100886.47;5023375;28;20021;-81
2022/04/12 10:00:31;;;;;;;16.63;8.73;;;;;;;16.24;49.42;100888.22;5022692;28;20207;-81
2022/04/12 10:03:01;;;;;;;;;;;;;;;16.28;48.88;100889.97;5024198;28;20034;-81
2022/04/12 10:05:28;;;;;;;22.95;9.75;;;;;;;16.35;48.47;100886.44;5023486;28;19905;-81
2022/04/12 10:07:56;;;;;;;16.30;9.02;;;;;;;16.41;48.49;100883.84;5020713;28;20018;-81
2022/04/12 10:10:23;;;;;;;21.07;9.70;;;;;;;16.49;47.80;100870.69;5022147;28;20041;-81
2022/04/12 10:12:49;;;;;;;20.30;9.23;;;;;;;16.49;47.06;100871.56;5019457;28;20017;-81
2022/04/12 10:15:15;;;;;;;17.63;8.40;;;;;;;16.51;47.55;100859.28;5014613;28;20146;-81
2022/04/12 10:17:41;;;;;;;21.70;9.32;;;;;;;16.57;49.57;100847.91;5022604;28;20048;-81
2022/04/12 10:20:07;;;;;;;22.40;9.10;;;;;;;16.70;50.31;100846.13;5023233;28;20040;-81
2022/04/12 10:22:33;;;;;;;19.27;9.60;;;;;;;16.77;46.96;100845.25;5023298;28;20029;-81
2022/04/12 10:25:02;;;;;;;20.95;9.68;;;;;;;16.86;48.34;100855.72;5023560;28;20294;-81
2022/04/12 10:27:28;;;;;;;18.07;9.87;;;;;;;16.94;46.65;100853.09;5023621;28;20026;-81
2022/04/12 10:30:16;;;;;;;16.52;9.02;;;;;;;17.00;47.85;100841.69;5023751;28;20065;-81
2022/04/12 10:33:01;;;;;;;17.73;9.60;;;;;;;17.10;48.98;100843.41;5023852;28;20021;-81
2022/04/12 10:35:28;;;;;;;22.92;9.68;;;;;;;17.13;47.18;100832.88;5023658;28;20017;-81
2022/04/12 10:37:56;;;;;;;17.38;9.07;;;;;;;17.20;47.34;100833.72;5023739;28;20243;-83
2022/04/12 10:40:26;;;;;;;17.95;9.43;;;;;;;17.26;48.69;100833.69;5023711;28;20363;-83
2022/04/12 10:42:53;;;;;;;20.48;10.38;;;;;;;17.30;47.15;100835.44;5023679;28;20013;-82
2022/04/12 10:45:29;;;;;;;21.73;10.02;;;;;;;17.34;46.93;100837.19;5022658;28;20025;-83
2022/04/12 10:47:59;;;;;;;22.95;10.50;;;;;;;17.41;48.73;100834.50;5023466;28;20029;-83
2022/04/12 10:50:25;;;;;;;20.52;10.13;;;;;;;17.45;48.31;100826.59;5023700;28;20031;-83
2022/04/12 10:52:50;;;;;;;22.33;11.02;;;;;;;17.49;49.05;100833.59;5023574;28;20164;-82
2022/04/12 10:55:26;;;;;;;20.55;10.20;;;;;;;17.49;46.53;100828.31;5022616;28;20021;-83
2022/04/12 10:57:53;;;;;;;65.22;15.30;;;;;;;17.56;50.13;100819.50;5023543;28;20093;-83
2022/04/12 11:00:21;;;;;;;23.70;10.15;;;;;;;17.58;47.44;100818.63;5023882;28;20275;-82
2022/04/12 11:02:57;;;;;;;21.52;10.35;;;;;;;17.63;48.46;100809.81;5023773;28;20033;-83
2022/04/12 11:05:39;;;;;;;20.33;10.25;;;;;;;17.67;48.08;100808.00;5022394;28;20025;-82
2022/04/12 11:08:06;;;;;;;23.88;10.95;;;;;;;17.69;49.12;100817.66;5022096;28;20021;-82
2022/04/12 11:10:31;;;;;;;20.27;9.98;;;;;;;17.71;48.67;100825.56;5023653;28;20014;-82
2022/04/12 11:13:04;;;;;;;19.80;9.70;;;;;;;17.72;47.67;100835.22;5022472;28;20029;-82
2022/04/12 11:15:31;;;;;;;17.70;9.57;;;;;;;17.76;47.33;100833.47;5023496;28;20022;-83
2022/04/12 11:18:14;;;;;;;17.17;8.85;;;;;;;17.86;47.54;100835.16;5023288;28;20021;-83
2022/04/12 11:20:42;;;;;;;14.43;9.13;;;;;;;17.86;45.64;100833.38;5022385;28;20084;-82